Weather reports worldwide

Advertisment
Sutton bonington, United Kingdom (99025): temperature & dewpoint: 15.10.2017 06:00:00 - 21.10.2017 06:00:00 (BST)Sutton bonington, United Kingdom (99025): temperature -20cm & temperature -100cm: 15.10.2017 06:00:00 - 21.10.2017 06:00:00 (BST)Sutton bonington, United Kingdom (99025): wind speed & gusts: 15.10.2017 06:00:00 - 21.10.2017 06:00:00 (BST)Sutton bonington, United Kingdom (99025): wind direction: 15.10.2017 06:00:00 - 21.10.2017 06:00:00 (BST)Sutton bonington, United Kingdom (99025): precipitation: 15.10.2017 06:00:00 - 21.10.2017 06:00:00 (BST)
Date & Time tt [°C] td [°C] tt -20cm [°C] tt -100cm [°C] ff [km/h] ff [kn] fx [km/h] fx [kn] dd rr [mm]
21.10.2017 06:00:00 - - - - - - - - - -
21.10.2017 05:00:00 - - - - - - - - - -
21.10.2017 04:00:00 - - - - - - - - - -
21.10.2017 03:00:00 - - - - - - - - - -
21.10.2017 02:00:00 - - - - - - - - - -
21.10.2017 01:00:00 - - - - - - - - - -
21.10.2017 00:00:00 - - - - - - - - - -
20.10.2017 23:00:00 - - - - - - - - - -
20.10.2017 22:00:00 - - - - - - - - - -
20.10.2017 21:00:00 - - - - - - - - - -
20.10.2017 20:00:00 11,1 6,9 - - 8 4 - - SSE 0,0
20.10.2017 19:00:00 11,0 7,1 - - 9 5 - - SSW 0,0
20.10.2017 18:00:00 11,5 7,4 - - 5 3 - - SSW 0,0
20.10.2017 17:00:00 12,7 8,8 - - 13 7 - - SSW 0,0
20.10.2017 16:00:00 13,4 9,4 - - 13 7 - - WSW 0,0
20.10.2017 15:00:00 13,5 11,0 - - 11 6 - - WSW 0,0
20.10.2017 14:00:00 14,1 11,0 - - 22 12 - - W 0,0
20.10.2017 13:00:00 14,1 11,1 - - 26 14 46 25 W 0,0
20.10.2017 12:00:00 13,3 11,8 - - 18 10 - - WSW 0,0
20.10.2017 11:00:00 13,2 12,1 - - 21 11 - - W 0,0
20.10.2017 10:00:00 12,5 11,6 13,7 14,0 16 9 - - W 0,0
20.10.2017 09:00:00 12,1 11,2 - - 13 7 - - W 0,0
20.10.2017 08:00:00 11,7 11,2 - - 13 7 - - W 0,2
20.10.2017 07:00:00 11,5 11,3 - - 9 5 - - W 0,4
20.10.2017 06:00:00 11,4 11,2 - - 4 2 - - S 0,8
20.10.2017 05:00:00 11,4 11,1 - - 5 3 - - SE 0,6
20.10.2017 04:00:00 11,5 10,9 - - 11 6 - - SE 0,0
20.10.2017 03:00:00 12,8 10,0 - - 15 8 - - SSE 0,0
20.10.2017 02:00:00 13,2 10,2 - - 11 6 - - S 0,0
20.10.2017 01:00:00 13,8 11,7 - - 15 8 - - S 0,2
20.10.2017 00:00:00 13,9 12,2 - - 21 11 - - SSE 0,0
19.10.2017 23:00:00 14,2 12,6 - - 15 8 - - SSE 0,0
19.10.2017 22:00:00 14,0 12,5 - - 16 9 - - SSE 0,2
19.10.2017 21:00:00 13,9 12,3 - - 15 8 - - SSE 0,0
19.10.2017 20:00:00 14,0 11,9 - - 15 8 - - SSE 0,0
19.10.2017 19:00:00 14,2 12,7 - - 15 8 - - S 0,0
19.10.2017 18:00:00 13,8 12,5 - - 8 4 - - SSW 1,4
19.10.2017 17:00:00 15,9 14,6 - - 13 7 - - SSE 0,0
19.10.2017 16:00:00 15,4 14,5 - - 9 5 - - ESE 0,0
19.10.2017 15:00:00 15,0 14,7 - - 9 5 - - ESE 0,0
19.10.2017 14:00:00 13,6 13,6 - - 9 5 - - ENE 0,4
19.10.2017 13:00:00 13,1 12,9 - - 9 5 - - ENE 0,4
19.10.2017 12:00:00 12,7 12,6 - - 11 6 - - ENE 5,6
19.10.2017 11:00:00 12,6 12,3 - - 5 3 - - ENE 0,8
19.10.2017 10:00:00 12,2 11,7 13,7 14,2 5 3 - - ESE 0,0
19.10.2017 09:00:00 12,0 11,6 - - 5 3 - - SE 0,0
19.10.2017 08:00:00 11,7 11,3 - - 4 2 - - S 0,0
19.10.2017 07:00:00 11,8 11,6 - - 4 2 - - SW 0,0
19.10.2017 06:00:00 11,9 11,8 - - 4 2 - - S 0,0
19.10.2017 05:00:00 12,0 11,9 - - 5 3 - - S 0,0
19.10.2017 04:00:00 11,9 11,8 - - 8 4 - - SSE 0,0
19.10.2017 03:00:00 11,7 11,7 - - 5 3 - - SSE 0,0
19.10.2017 02:00:00 11,9 11,7 - - 8 4 - - SSE 0,0
19.10.2017 01:00:00 11,8 11,7 - - 8 4 - - S 0,0
19.10.2017 00:00:00 11,6 11,5 - - 4 2 - - SSE 0,0
18.10.2017 23:00:00 11,5 11,4 - - 4 2 - - SE 0,2
18.10.2017 22:00:00 11,4 11,4 - - 4 2 - - ESE 0,2
18.10.2017 21:00:00 11,4 11,2 - - 5 3 - - ESE 0,0
18.10.2017 20:00:00 11,3 11,1 - - 5 3 - - E 0,0
18.10.2017 19:00:00 11,3 11,0 - - 9 5 - - E 0,0
18.10.2017 18:00:00 11,0 10,9 - - 9 5 - - ENE 0,2
18.10.2017 17:00:00 11,1 10,8 - - 8 4 - - E 0,0
18.10.2017 16:00:00 11,2 10,8 - - 8 4 - - ENE 0,2
18.10.2017 15:00:00 11,1 10,7 - - 11 6 - - ENE 0,2
18.10.2017 14:00:00 11,6 9,8 - - 8 4 - - E 0,0
18.10.2017 13:00:00 11,6 9,2 - - 8 4 - - E 0,0
18.10.2017 12:00:00 11,5 8,6 - - 11 6 - - E 0,0
18.10.2017 11:00:00 11,2 8,8 - - 8 4 - - E 0,0
18.10.2017 10:00:00 10,5 8,5 13,7 14,2 5 3 - - ENE 0,0
18.10.2017 09:00:00 10,0 8,9 - - 2 1 - - ENE 0,0
18.10.2017 08:00:00 9,8 8,7 - - 4 2 - - ESE 0,0
18.10.2017 07:00:00 9,9 9,1 - - 0 0 - - N 0,0
18.10.2017 06:00:00 9,9 8,8 - - 0 0 - - N 0,0
18.10.2017 05:00:00 9,8 8,9 - - 4 2 - - SE 0,0
18.10.2017 04:00:00 9,7 9,0 - - 0 0 - - N 0,0
18.10.2017 03:00:00 9,7 9,0 - - 2 1 - - ESE 0,2
18.10.2017 02:00:00 9,6 8,7 - - 4 2 - - ENE 0,0
18.10.2017 01:00:00 10,1 7,7 - - 4 2 - - SSE 0,2
18.10.2017 00:00:00 10,6 7,1 - - 5 3 - - S 0,0
17.10.2017 23:00:00 10,9 6,5 - - 5 3 - - SW 0,0
17.10.2017 22:00:00 10,8 6,5 - - 4 2 - - W 0,0
17.10.2017 21:00:00 11,2 5,9 - - 5 3 - - SW 0,0
17.10.2017 20:00:00 12,0 5,6 - - 8 4 - - W 0,0
17.10.2017 19:00:00 12,4 5,7 - - 8 4 - - WSW 0,0
17.10.2017 18:00:00 13,0 5,7 - - 11 6 - - W 0,0
17.10.2017 17:00:00 14,4 5,4 - - 11 6 - - W 0,0
17.10.2017 16:00:00 15,3 4,9 - - 18 10 - - W 0,0
17.10.2017 15:00:00 15,5 4,7 - - 22 12 - - WSW 0,0
17.10.2017 14:00:00 15,3 5,7 - - 21 11 48 26 W 0,0
17.10.2017 13:00:00 14,8 6,0 - - 22 12 48 26 WSW 0,0
17.10.2017 12:00:00 14,2 5,8 - - 26 14 46 25 WSW 0,0
17.10.2017 11:00:00 13,8 7,0 - - 24 13 54 29 SW 0,0
17.10.2017 10:00:00 12,7 6,8 14,0 14,4 24 13 - - SW 0,0
17.10.2017 09:00:00 11,7 7,0 - - 18 10 - - SW 0,0
17.10.2017 08:00:00 11,5 6,3 - - 18 10 - - SW 0,0
17.10.2017 07:00:00 11,7 6,5 - - 13 7 - - SW 0,0
17.10.2017 06:00:00 12,4 6,3 - - 21 11 - - SW 0,0
17.10.2017 05:00:00 13,1 6,3 - - 18 10 52 28 SW 0,0
17.10.2017 04:00:00 13,4 6,2 - - 26 14 70 38 WSW 0,0
17.10.2017 03:00:00 13,9 6,1 - - 26 14 70 38 SW 0,0
17.10.2017 02:00:00 13,9 6,8 - - 24 13 50 27 SW 0,0
17.10.2017 01:00:00 13,6 7,3 - - 21 11 48 26 SW 0,0
17.10.2017 00:00:00 13,9 6,9 - - 24 13 46 25 SW 0,0
16.10.2017 23:00:00 14,0 6,9 - - 22 12 61 33 SSW 0,0
16.10.2017 22:00:00 14,6 6,5 - - 28 15 61 33 SSW 0,0
16.10.2017 21:00:00 14,8 7,0 - - 24 13 50 27 SSW 0,0
16.10.2017 20:00:00 15,3 7,0 - - 28 15 67 36 SSW 0,0
16.10.2017 19:00:00 16,0 6,4 - - 28 15 65 35 SSW 0,0
16.10.2017 18:00:00 16,9 7,9 - - 22 12 50 27 SSW 0,0
16.10.2017 17:00:00 18,0 10,5 - - 24 13 59 32 S 0,0
16.10.2017 16:00:00 18,9 10,9 - - 21 11 57 31 S 0,0
16.10.2017 15:00:00 18,8 13,4 - - 18 10 55 30 S 0,0
16.10.2017 14:00:00 19,4 14,4 - - 24 13 48 26 S 0,0
16.10.2017 13:00:00 20,1 15,2 - - 22 12 - - S 0,0
16.10.2017 12:00:00 20,0 15,4 - - 22 12 - - S 0,0
16.10.2017 11:00:00 18,7 15,8 - - 16 9 - - SSE 0,0
16.10.2017 10:00:00 17,0 15,4 14,2 14,2 16 9 - - SE 0,0
16.10.2017 09:00:00 15,8 14,8 - - 13 7 - - SE 0,0
16.10.2017 08:00:00 15,0 14,5 - - 11 6 - - SE 0,0
16.10.2017 07:00:00 14,3 13,9 - - 5 3 - - ESE 0,0
16.10.2017 06:00:00 14,6 14,0 - - 5 3 - - SE 0,0
16.10.2017 05:00:00 14,4 13,8 - - 8 4 - - SE 0,0
16.10.2017 04:00:00 14,0 13,3 - - 8 4 - - SSE 0,0
16.10.2017 03:00:00 14,0 13,3 - - 8 4 - - SSE 0,0
16.10.2017 02:00:00 12,9 12,2 - - 5 3 - - SSE 0,0
16.10.2017 01:00:00 13,1 12,0 - - 8 4 - - SE 0,0
16.10.2017 00:00:00 12,6 11,6 - - 5 3 - - SE 0,0
15.10.2017 23:00:00 12,7 11,8 - - 5 3 - - S 0,0
15.10.2017 22:00:00 11,2 10,6 - - 4 2 - - SE 0,0
15.10.2017 21:00:00 12,0 11,1 - - 4 2 - - S 0,0
15.10.2017 20:00:00 13,5 11,0 - - 2 1 - - SSW 0,0
15.10.2017 19:00:00 14,5 11,7 - - 8 4 - - SSW 0,0
15.10.2017 18:00:00 15,6 11,8 - - 9 5 - - SSW 0,0
15.10.2017 17:00:00 16,3 11,8 - - 15 8 - - SSW 0,0
15.10.2017 16:00:00 16,8 12,2 - - 13 7 - - SSW 0,0
15.10.2017 15:00:00 17,1 12,1 - - 13 7 - - SSW 0,0
15.10.2017 14:00:00 17,5 13,0 - - 13 7 - - SW 0,0
15.10.2017 13:00:00 17,5 13,3 - - 13 7 - - SW 0,0
15.10.2017 12:00:00 17,3 14,0 - - 11 6 - - SSW 0,0
15.10.2017 11:00:00 15,6 14,0 - - 9 5 - - S 0,0
15.10.2017 10:00:00 14,9 13,7 14,2 14,2 9 5 - - SSW 0,0
15.10.2017 09:00:00 14,8 13,5 - - 8 4 - - SSW 0,0
15.10.2017 08:00:00 14,2 13,1 - - 8 4 - - S 0,0
15.10.2017 07:00:00 14,0 12,9 - - 4 2 - - S 0,0
15.10.2017 06:00:00 13,8 12,9 - - 8 4 - - S 0,0

tt = temperature
td = dewpoint
tt -20cm = temperature -20cm
tt -100cm = temperature -100cm
ff = wind speed
fx = gusts
dd = wind direction
rr = precipitation

Next stations